createdAt,value
2022-10-23T00:00:27.978Z,97616.47
2022-10-23T00:02:38.551Z,97619.84
2022-10-23T00:04:47.116Z,97619.06
2022-10-23T00:06:55.219Z,97627.88
2022-10-23T00:09:03.458Z,97629.28
2022-10-23T00:11:13.855Z,97612.88
2022-10-23T00:13:21.881Z,97609.56
2022-10-23T00:15:29.846Z,97612.25
2022-10-23T00:17:40.503Z,97611.72
2022-10-23T00:19:48.661Z,97603.66
2022-10-23T00:21:56.622Z,97591.38
2022-10-23T00:24:05.252Z,97583.91
2022-10-23T00:26:15.949Z,97589.47
2022-10-23T00:28:24.104Z,97596.38
2022-10-23T00:30:31.936Z,97606.66
2022-10-23T00:32:43.486Z,97602.75
2022-10-23T00:34:51.720Z,97609.03
2022-10-23T00:36:59.797Z,97609.88
2022-10-23T00:39:07.957Z,97615.97
2022-10-23T00:41:20.841Z,97604.03
2022-10-23T00:43:31.281Z,97602.03
2022-10-23T00:45:39.437Z,97597.13
2022-10-23T00:47:51.805Z,97601.72
2022-10-23T00:50:01.758Z,97602.03
2022-10-23T00:52:12.274Z,97586.59
2022-10-23T00:54:24.330Z,97587.44
2022-10-23T00:56:34.166Z,97587.34
2022-10-23T00:58:41.984Z,97584.06
2022-10-23T01:00:54.881Z,97576.72
2022-10-23T01:03:05.443Z,97574.81
2022-10-23T01:05:13.955Z,97581.06
2022-10-23T01:07:25.722Z,97580.44
2022-10-23T01:09:40.998Z,97580.75
2022-10-23T01:11:55.958Z,97590.88
2022-10-23T01:14:13.651Z,97588.66
2022-10-23T01:16:26.827Z,97589.16
2022-10-23T01:18:43.722Z,97581.81
2022-10-23T01:20:58.345Z,97580.66
2022-10-23T01:23:20.994Z,97580.09
2022-10-23T01:25:39.567Z,97576.72
2022-10-23T01:27:56.060Z,97575.88
2022-10-23T01:30:08.986Z,97575.94
2022-10-23T01:32:30.986Z,97562.88
2022-10-23T01:34:47.588Z,97558.28
2022-10-23T01:36:57.356Z,97557.63
2022-10-23T01:39:10.892Z,97557.63
2022-10-23T01:41:24.111Z,97554.75
2022-10-23T01:43:42.032Z,97558.28
2022-10-23T01:45:57.757Z,97548.59
2022-10-23T01:48:09.994Z,97545.09
2022-10-23T01:50:20.824Z,97538.28
2022-10-23T01:52:31.156Z,97547.19
2022-10-23T01:54:44.172Z,97545.94
2022-10-23T01:56:54.537Z,97541.13
2022-10-23T01:59:16.412Z,97539.25
2022-10-23T02:01:29.144Z,97537.00
2022-10-23T02:03:40.448Z,97534.03
2022-10-23T02:05:48.976Z,97536.38
2022-10-23T02:07:57.362Z,97539.56
2022-10-23T02:10:06.031Z,97533.75
2022-10-23T02:12:21.649Z,97529.34
2022-10-23T02:14:42.906Z,97523.63
2022-10-23T02:16:54.530Z,97513.94
2022-10-23T02:19:13.851Z,97514.22
2022-10-23T02:21:34.267Z,97513.50
2022-10-23T02:23:53.837Z,97515.13
2022-10-23T02:26:10.507Z,97512.97
2022-10-23T02:28:23.042Z,97504.47
2022-10-23T02:30:40.784Z,97506.50
2022-10-23T02:32:53.941Z,97505.09
2022-10-23T02:35:02.952Z,97505.44
2022-10-23T02:37:11.719Z,97494.34
2022-10-23T02:39:19.749Z,97493.38
2022-10-23T02:41:50.038Z,97493.63
2022-10-23T02:44:10.868Z,97486.91
2022-10-23T02:46:28.234Z,97494.88
2022-10-23T02:48:43.598Z,97485.16
2022-10-23T02:51:00.592Z,97485.81
2022-10-23T02:53:17.385Z,97473.81
2022-10-23T02:55:34.332Z,97474.00
2022-10-23T02:57:47.923Z,97467.41
2022-10-23T03:00:04.026Z,97470.06
2022-10-23T03:02:25.721Z,97476.13
2022-10-23T03:04:35.596Z,97474.31
2022-10-23T03:06:44.300Z,97479.94
2022-10-23T03:09:01.530Z,97475.69
2022-10-23T03:11:09.838Z,97475.97
2022-10-23T03:13:17.677Z,97477.06
2022-10-23T03:15:25.558Z,97483.97
2022-10-23T03:17:36.931Z,97487.59
2022-10-23T03:19:44.779Z,97487.38
2022-10-23T03:21:53.065Z,97491.63
2022-10-23T03:24:02.414Z,97493.97
2022-10-23T03:26:16.393Z,97494.41
2022-10-23T03:28:24.664Z,97494.91
2022-10-23T03:30:32.411Z,97487.25
2022-10-23T03:32:43.360Z,97489.72
2022-10-23T03:34:51.306Z,97492.59
2022-10-23T03:36:59.474Z,97488.75
2022-10-23T03:39:07.585Z,97484.16
2022-10-23T03:41:15.945Z,97487.16
2022-10-23T03:43:23.967Z,97491.00
2022-10-23T03:45:32.698Z,97488.97
2022-10-23T03:47:43.881Z,97482.78
2022-10-23T03:49:51.896Z,97486.28
2022-10-23T03:52:00.046Z,97485.00
2022-10-23T03:54:08.971Z,97481.09
2022-10-23T03:56:18.837Z,97481.09
2022-10-23T03:58:26.863Z,97475.56
2022-10-23T04:00:35.092Z,97479.59
2022-10-23T04:02:46.756Z,97476.63
2022-10-23T04:04:55.810Z,97476.34
2022-10-23T04:07:03.650Z,97473.97
2022-10-23T04:11:39.883Z,97476.94
2022-10-23T04:13:48.718Z,97491.22
2022-10-23T04:15:56.571Z,97495.69
2022-10-23T04:18:07.897Z,97494.84
2022-10-23T04:20:16.431Z,97495.59
2022-10-23T04:22:26.138Z,97480.50
2022-10-23T04:24:36.944Z,97485.81
2022-10-23T04:26:44.972Z,97492.72
2022-10-23T04:28:53.431Z,97497.94
2022-10-23T04:31:01.433Z,97486.34
2022-10-23T04:33:12.347Z,97489.13
2022-10-23T04:35:20.307Z,97486.97
2022-10-23T04:37:28.533Z,97490.91
2022-10-23T04:39:37.068Z,97494.41
2022-10-23T04:41:44.864Z,97492.06
2022-10-23T04:43:53.152Z,97503.22
2022-10-23T04:46:01.461Z,97498.84
2022-10-23T04:48:12.143Z,97506.94
2022-10-23T04:50:40.138Z,97494.91
2022-10-23T04:53:12.569Z,97491.09
2022-10-23T04:55:53.560Z,97490.84
2022-10-23T04:58:32.688Z,97509.66
2022-10-23T05:00:40.564Z,97508.81
2022-10-23T05:02:50.412Z,97509.78
2022-10-23T05:05:01.353Z,97504.13
2022-10-23T05:07:15.128Z,97508.19
2022-10-23T05:09:39.984Z,97498.41
2022-10-23T05:12:10.649Z,97507.97
2022-10-23T05:14:21.996Z,97500.09
2022-10-23T05:16:39.211Z,97506.81
2022-10-23T05:18:49.623Z,97504.28
2022-10-23T05:21:05.295Z,97492.81
2022-10-23T05:23:16.803Z,97487.06
2022-10-23T05:25:33.666Z,97483.22
2022-10-23T05:27:51.498Z,97491.47
2022-10-23T05:29:59.613Z,97486.88
2022-10-23T05:32:13.608Z,97496.41
2022-10-23T05:34:26.917Z,97492.13
2022-10-23T05:36:37.656Z,97492.91
2022-10-23T05:38:45.841Z,97491.22
2022-10-23T05:41:01.066Z,97488.75
2022-10-23T05:43:10.748Z,97484.72
2022-10-23T05:45:30.193Z,97472.63
2022-10-23T05:48:11.110Z,97473.09
2022-10-23T05:50:47.526Z,97479.09
2022-10-23T05:53:05.931Z,97471.13
2022-10-23T05:55:31.746Z,97458.91
2022-10-23T05:57:57.671Z,97457.44
2022-10-23T06:00:25.677Z,97456.59
2022-10-23T06:02:51.195Z,97447.84
2022-10-23T06:05:12.580Z,97452.97
2022-10-23T06:07:39.226Z,97450.19
2022-10-23T06:09:51.632Z,97453.03
2022-10-23T06:12:00.797Z,97446.66
2022-10-23T06:14:09.857Z,97449.78
2022-10-23T06:16:20.701Z,97451.03
2022-10-23T06:18:29.167Z,97447.63
2022-10-23T06:20:43.219Z,97440.31
2022-10-23T06:22:57.497Z,97443.28
2022-10-23T06:25:27.553Z,97454.13
2022-10-23T06:27:37.769Z,97443.50
2022-10-23T06:29:47.209Z,97451.16
2022-10-23T06:31:55.297Z,97459.13
2022-10-23T06:34:04.528Z,97463.59
2022-10-23T06:36:13.045Z,97467.00
2022-10-23T06:38:23.267Z,97473.16
2022-10-23T06:40:38.924Z,97463.56
2022-10-23T06:42:48.332Z,97461.88
2022-10-23T06:45:20.661Z,97451.94
2022-10-23T06:47:28.402Z,97461.22
2022-10-23T06:49:54.830Z,97459.91
2022-10-23T06:52:03.510Z,97468.19
2022-10-23T06:54:11.554Z,97469.34
2022-10-23T06:56:35.214Z,97475.00
2022-10-23T06:58:46.628Z,97477.31
2022-10-23T07:00:56.912Z,97478.81
2022-10-23T07:03:05.341Z,97480.88
2022-10-23T07:05:15.112Z,97480.22
2022-10-23T07:07:24.246Z,97484.44
2022-10-23T07:09:33.609Z,97490.03
2022-10-23T07:12:04.727Z,97494.84
2022-10-23T07:14:21.948Z,97499.97
2022-10-23T07:16:31.067Z,97495.38
2022-10-23T07:18:39.568Z,97500.25
2022-10-23T07:21:10.627Z,97500.59
2022-10-23T07:23:20.673Z,97504.41
2022-10-23T07:25:29.657Z,97505.75
2022-10-23T07:27:44.773Z,97510.47
2022-10-23T07:29:53.163Z,97508.19
2022-10-23T07:32:01.110Z,97503.34
2022-10-23T07:34:32.113Z,97503.34
2022-10-23T07:37:03.472Z,97505.88
2022-10-23T07:39:12.263Z,97502.69
2022-10-23T07:41:27.560Z,97506.94
2022-10-23T07:43:38.327Z,97524.28
2022-10-23T07:45:49.495Z,97518.25
2022-10-23T07:48:14.343Z,97522.25
2022-10-23T07:50:40.749Z,97517.97
2022-10-23T07:52:49.002Z,97523.22
2022-10-23T07:54:58.154Z,97522.09
2022-10-23T07:57:09.363Z,97525.97
2022-10-23T07:59:26.319Z,97519.59
2022-10-23T08:01:37.066Z,97512.44
2022-10-23T08:03:45.252Z,97518.88
2022-10-23T08:05:53.215Z,97508.34
2022-10-23T08:08:01.301Z,97514.88
2022-10-23T08:10:10.807Z,97512.44
2022-10-23T08:12:21.401Z,97519.25
2022-10-23T08:14:31.821Z,97513.81
2022-10-23T08:16:41.665Z,97508.69
2022-10-23T08:19:18.240Z,97503.69
2022-10-23T08:21:27.903Z,97500.69
2022-10-23T08:23:36.153Z,97495.59
2022-10-23T08:25:44.455Z,97485.75
2022-10-23T08:27:54.888Z,97488.28
2022-10-23T08:30:06.438Z,97489.13
2022-10-23T08:32:14.507Z,97481.00
2022-10-23T08:34:34.146Z,97484.72
2022-10-23T08:36:44.538Z,97493.09
2022-10-23T08:38:53.730Z,97485.03
2022-10-23T08:41:03.125Z,97483.38
2022-10-23T08:43:38.991Z,97473.28
2022-10-23T08:46:09.694Z,97478.63
2022-10-23T08:49:02.471Z,97472.84
2022-10-23T08:51:32.077Z,97471.25
2022-10-23T08:53:47.801Z,97473.31
2022-10-23T08:56:02.648Z,97473.44
2022-10-23T08:58:16.800Z,97467.94
2022-10-23T09:00:24.747Z,97474.88
2022-10-23T09:02:40.209Z,97487.44
2022-10-23T09:04:51.153Z,97482.44
2022-10-23T09:09:58.641Z,97474.88
2022-10-23T09:12:16.826Z,97480.56
2022-10-23T09:14:41.152Z,97509.34
2022-10-23T09:17:00.985Z,97533.13
2022-10-23T09:19:19.753Z,97515.06
2022-10-23T09:21:30.278Z,97538.78
2022-10-23T09:23:38.352Z,97551.31
2022-10-23T09:25:47.685Z,97555.19
2022-10-23T09:28:01.373Z,97572.59
2022-10-23T09:30:13.236Z,97546.97
2022-10-23T09:32:21.831Z,97543.53
2022-10-23T09:34:34.270Z,97556.19
2022-10-23T09:36:52.839Z,97572.00
2022-10-23T09:39:02.745Z,97546.56
2022-10-23T09:41:17.076Z,97549.16
2022-10-23T09:43:27.635Z,97555.16
2022-10-23T09:45:42.696Z,97556.09
2022-10-23T09:47:54.998Z,97546.34
2022-10-23T09:50:05.826Z,97538.31
2022-10-23T09:52:27.043Z,97523.63
2022-10-23T09:54:38.205Z,97528.34
2022-10-23T09:56:51.504Z,97535.13
2022-10-23T09:59:02.780Z,97534.63
2022-10-23T10:01:26.310Z,97541.91
2022-10-23T10:03:40.387Z,97535.81
2022-10-23T10:06:01.210Z,97557.75
2022-10-23T10:08:20.037Z,97555.16
2022-10-23T10:10:30.259Z,97539.94
2022-10-23T10:12:49.952Z,97542.16
2022-10-23T10:15:09.635Z,97532.47
2022-10-23T10:17:26.433Z,97533.19
2022-10-23T10:19:48.651Z,97527.41
2022-10-23T10:22:04.882Z,97519.13
2022-10-23T10:24:20.249Z,97503.03
2022-10-23T10:26:38.074Z,97507.31
2022-10-23T10:28:57.338Z,97495.84
2022-10-23T10:31:18.425Z,97485.66
2022-10-23T10:33:38.605Z,97473.91
2022-10-23T10:35:55.642Z,97485.31
2022-10-23T10:38:22.989Z,97498.81
2022-10-23T10:40:34.479Z,97491.38
2022-10-23T10:43:04.267Z,97462.72
2022-10-23T10:45:32.649Z,97452.03
2022-10-23T10:47:50.692Z,97434.34
2022-10-23T10:50:15.199Z,97415.28
2022-10-23T10:52:50.645Z,97421.19
2022-10-23T10:55:12.374Z,97418.19
2022-10-23T10:57:32.677Z,97428.88
2022-10-23T10:59:43.089Z,97431.69
2022-10-23T11:01:59.833Z,97437.59
2022-10-23T11:04:14.445Z,97438.34
2022-10-23T11:06:26.441Z,97428.59
2022-10-23T11:08:49.983Z,97425.59
2022-10-23T11:11:15.753Z,97426.44
2022-10-23T11:13:29.850Z,97427.38
2022-10-23T11:15:43.834Z,97419.16
2022-10-23T11:17:56.678Z,97403.50
2022-10-23T11:20:09.613Z,97403.63
2022-10-23T11:22:26.381Z,97388.84
2022-10-23T11:24:58.370Z,97398.13
2022-10-23T11:27:29.158Z,97384.44
2022-10-23T11:30:03.580Z,97379.69
2022-10-23T11:32:28.911Z,97372.06
2022-10-23T11:35:08.432Z,97357.16
2022-10-23T11:37:21.296Z,97363.31
2022-10-23T11:39:30.982Z,97351.91
2022-10-23T11:41:51.961Z,97345.38
2022-10-23T11:44:05.790Z,97344.53
2022-10-23T11:46:18.155Z,97346.81
2022-10-23T11:48:38.983Z,97342.28
2022-10-23T11:50:59.039Z,97339.94
2022-10-23T11:53:26.254Z,97337.28
2022-10-23T11:55:36.011Z,97349.44
2022-10-23T11:57:43.921Z,97352.16
2022-10-23T11:59:59.842Z,97339.50
2022-10-23T12:02:25.811Z,97334.78
2022-10-23T12:04:41.725Z,97328.88
2022-10-23T12:06:52.677Z,97329.72
2022-10-23T12:09:07.610Z,97323.34
2022-10-23T12:11:31.691Z,97322.31
2022-10-23T12:13:49.594Z,97324.19
2022-10-23T12:16:01.115Z,97331.91
2022-10-23T12:18:17.975Z,97326.25
2022-10-23T12:20:34.612Z,97318.69
2022-10-23T12:22:50.533Z,97318.94
2022-10-23T12:25:06.378Z,97324.41
2022-10-23T12:27:23.323Z,97332.63
2022-10-23T12:29:53.760Z,97314.81
2022-10-23T12:32:18.791Z,97311.22
2022-10-23T12:34:38.399Z,97304.88
2022-10-23T12:37:03.093Z,97300.56
2022-10-23T12:39:29.206Z,97295.66
2022-10-23T12:41:41.112Z,97303.19
2022-10-23T12:43:56.281Z,97304.88
2022-10-23T12:46:08.545Z,97289.06
2022-10-23T12:48:25.999Z,97286.34
2022-10-23T12:50:35.816Z,97271.56
2022-10-23T12:52:54.045Z,97292.38
2022-10-23T12:55:01.950Z,97287.91
2022-10-23T12:57:23.098Z,97282.03
2022-10-23T12:59:41.918Z,97289.78
2022-10-23T13:01:52.745Z,97275.69
2022-10-23T13:04:11.090Z,97273.63
2022-10-23T13:06:19.691Z,97279.78
2022-10-23T13:08:35.119Z,97270.25
2022-10-23T13:11:23.002Z,97253.19
2022-10-23T13:13:33.120Z,97247.31
2022-10-23T13:15:43.815Z,97229.66
2022-10-23T13:18:05.234Z,97237.09
2022-10-23T13:20:24.188Z,97243.81
2022-10-23T13:22:31.961Z,97245.59
2022-10-23T13:24:40.064Z,97247.47
2022-10-23T13:26:49.104Z,97238.88
2022-10-23T13:28:57.702Z,97231.41
2022-10-23T13:31:10.271Z,97230.59
2022-10-23T13:33:25.209Z,97227.13
2022-10-23T13:35:37.445Z,97229.16
2022-10-23T13:37:45.299Z,97219.72
2022-10-23T13:40:03.076Z,97229.53
2022-10-23T13:42:16.451Z,97225.19
2022-10-23T13:44:26.777Z,97230.84
2022-10-23T13:46:35.184Z,97228.41
2022-10-23T13:48:43.108Z,97221.38
2022-10-23T13:50:53.658Z,97218.97
2022-10-23T13:53:01.859Z,97210.06
2022-10-23T13:55:20.407Z,97223.78
2022-10-23T13:57:29.044Z,97227.47
2022-10-23T13:59:36.778Z,97219.44
2022-10-23T14:01:46.391Z,97223.53
2022-10-23T14:03:55.625Z,97228.44
2022-10-23T14:06:06.381Z,97219.91
2022-10-23T14:08:14.867Z,97221.13
2022-10-23T14:10:25.653Z,97225.56
2022-10-23T14:12:42.448Z,97221.22
2022-10-23T14:14:54.137Z,97227.53
2022-10-23T14:17:02.456Z,97223.50
2022-10-23T14:19:10.928Z,97222.84
2022-10-23T14:21:24.601Z,97216.63
2022-10-23T14:23:32.469Z,97206.91
2022-10-23T14:25:40.209Z,97216.88
2022-10-23T14:27:48.288Z,97191.94
2022-10-23T14:29:56.383Z,97198.34
2022-10-23T14:32:04.260Z,97194.63
2022-10-23T14:34:12.206Z,97199.00
2022-10-23T14:36:22.782Z,97199.19
2022-10-23T14:38:31.665Z,97198.34
2022-10-23T14:40:41.320Z,97203.41
2022-10-23T14:42:49.606Z,97205.13
2022-10-23T14:44:57.399Z,97199.91
2022-10-23T14:47:05.219Z,97205.81
2022-10-23T14:49:13.187Z,97202.59
2022-10-23T14:51:25.687Z,97188.44
2022-10-23T14:53:34.021Z,97195.03
2022-10-23T14:55:42.429Z,97184.06
2022-10-23T14:57:50.160Z,97180.38
2022-10-23T14:59:57.926Z,97181.91
2022-10-23T15:02:06.023Z,97179.53
2022-10-23T15:04:15.035Z,97176.84
2022-10-23T15:06:26.663Z,97178.00
2022-10-23T15:08:36.153Z,97172.28
2022-10-23T15:10:44.173Z,97172.44
2022-10-23T15:12:51.970Z,97165.84
2022-10-23T15:14:59.678Z,97165.00
2022-10-23T15:17:09.783Z,97167.03
2022-10-23T15:19:20.800Z,97162.97
2022-10-23T15:21:31.196Z,97159.28
2022-10-23T15:23:42.583Z,97166.03
2022-10-23T15:25:58.324Z,97167.03
2022-10-23T15:28:06.562Z,97156.25
2022-10-23T15:30:17.449Z,97148.34
2022-10-23T15:32:25.178Z,97160.47
2022-10-23T15:34:33.395Z,97154.94
2022-10-23T15:36:44.941Z,97148.19
2022-10-23T15:38:53.696Z,97139.75
2022-10-23T15:41:16.336Z,97132.50
2022-10-23T15:43:24.450Z,97125.59
2022-10-23T15:45:32.309Z,97125.63
2022-10-23T15:47:40.454Z,97122.72
2022-10-23T15:49:48.337Z,97124.72
2022-10-23T15:51:59.741Z,97114.31
2022-10-23T15:54:09.294Z,97113.09
2022-10-23T15:56:17.398Z,97122.03
2022-10-23T15:58:25.263Z,97111.09
2022-10-23T16:00:36.093Z,97105.69
2022-10-23T16:02:46.510Z,97103.13
2022-10-23T16:04:54.773Z,97110.06
2022-10-23T16:07:05.218Z,97104.69
2022-10-23T16:09:13.320Z,97102.66
2022-10-23T16:11:24.802Z,97124.38
2022-10-23T16:13:32.777Z,97115.09
2022-10-23T16:15:41.410Z,97126.19
2022-10-23T16:17:49.412Z,97131.03
2022-10-23T16:19:57.342Z,97142.63
2022-10-23T16:22:07.873Z,97137.84
2022-10-23T16:24:15.836Z,97145.19
2022-10-23T16:26:25.887Z,97148.50
2022-10-23T16:28:34.676Z,97140.91
2022-10-23T16:30:44.281Z,97133.34
2022-10-23T16:32:52.926Z,97138.94
2022-10-23T16:35:01.173Z,97148.22
2022-10-23T16:37:19.462Z,97133.38
2022-10-23T16:39:32.182Z,97133.09
2022-10-23T16:41:59.433Z,97132.81
2022-10-23T16:44:16.421Z,97134.00
2022-10-23T16:46:36.830Z,97122.72
2022-10-23T16:48:45.299Z,97133.38
2022-10-23T16:50:53.700Z,97127.13
2022-10-23T16:53:04.496Z,97123.94
2022-10-23T16:55:13.061Z,97116.59
2022-10-23T16:57:21.086Z,97117.03
2022-10-23T16:59:28.985Z,97113.31
2022-10-23T17:01:37.171Z,97116.19
2022-10-23T17:03:48.400Z,97116.19
2022-10-23T17:05:59.623Z,97119.06
2022-10-23T17:08:11.872Z,97118.22
2022-10-23T17:10:19.664Z,97124.94
2022-10-23T17:12:27.532Z,97133.84
2022-10-23T17:14:35.676Z,97139.84
2022-10-23T17:16:47.988Z,97151.09
2022-10-23T17:18:56.076Z,97149.91
2022-10-23T17:21:04.398Z,97147.38
2022-10-23T17:23:15.674Z,97148.94
2022-10-23T17:25:23.936Z,97151.94
2022-10-23T17:27:31.977Z,97157.59
2022-10-23T17:29:39.867Z,97150.66
2022-10-23T17:31:51.456Z,97140.13
2022-10-23T17:34:02.453Z,97144.69
2022-10-23T17:36:11.661Z,97158.94
2022-10-23T17:38:22.207Z,97173.38
2022-10-23T17:40:33.102Z,97193.00
2022-10-23T17:42:41.284Z,97190.28
2022-10-23T17:44:52.088Z,97185.84
2022-10-23T17:46:59.906Z,97186.19
2022-10-23T17:49:09.271Z,97186.31
2022-10-23T17:51:20.066Z,97184.53
2022-10-23T17:53:31.012Z,97194.63
2022-10-23T17:55:42.409Z,97202.63
2022-10-23T17:57:50.597Z,97188.97
2022-10-23T17:59:58.705Z,97195.38
2022-10-23T18:02:07.446Z,97195.03
2022-10-23T18:04:15.594Z,97184.44
2022-10-23T18:06:28.816Z,97173.13
2022-10-23T18:08:40.547Z,97176.94
2022-10-23T18:10:48.436Z,97188.34
2022-10-23T18:12:57.057Z,97167.44
2022-10-23T18:15:05.277Z,97156.38
2022-10-23T18:17:13.594Z,97194.81
2022-10-23T18:19:21.963Z,97195.56
2022-10-23T18:21:30.894Z,97202.56
2022-10-23T18:23:41.459Z,97212.44
2022-10-23T18:25:49.965Z,97219.97
2022-10-23T18:28:01.776Z,97230.31
2022-10-23T18:30:12.724Z,97223.41
2022-10-23T18:32:20.830Z,97238.50
2022-10-23T18:34:29.606Z,97237.00
2022-10-23T18:36:40.026Z,97249.00
2022-10-23T18:38:51.428Z,97254.84
2022-10-23T18:41:02.499Z,97250.47
2022-10-23T18:43:15.261Z,97261.16
2022-10-23T18:45:28.706Z,97274.94
2022-10-23T18:47:36.783Z,97286.81
2022-10-23T18:49:45.245Z,97285.75
2022-10-23T18:51:53.937Z,97283.38
2022-10-23T18:54:07.848Z,97274.84
2022-10-23T18:56:16.734Z,97277.69
2022-10-23T18:58:25.202Z,97274.50
2022-10-23T19:00:33.637Z,97255.13
2022-10-23T19:02:42.885Z,97263.56
2022-10-23T19:04:50.987Z,97293.50
2022-10-23T19:06:59.197Z,97294.19
2022-10-23T19:09:13.862Z,97289.63
2022-10-23T19:11:24.104Z,97305.41
2022-10-23T19:13:39.001Z,97298.13
2022-10-23T19:15:47.883Z,97284.28
2022-10-23T19:17:57.282Z,97300.50
2022-10-23T19:20:12.452Z,97299.13
2022-10-23T19:22:21.123Z,97302.91
2022-10-23T19:24:40.046Z,97296.22
2022-10-23T19:26:47.943Z,97294.53
2022-10-23T19:28:56.240Z,97290.06
2022-10-23T19:31:04.439Z,97304.97
2022-10-23T19:33:12.757Z,97318.72
2022-10-23T19:35:23.217Z,97316.78
2022-10-23T19:37:31.371Z,97300.09
2022-10-23T19:39:42.606Z,97322.56
2022-10-23T19:41:51.779Z,97310.66
2022-10-23T19:44:00.055Z,97306.75
2022-10-23T19:46:12.006Z,97303.34
2022-10-23T19:48:20.933Z,97294.16
2022-10-23T19:50:29.131Z,97296.91
2022-10-23T19:52:37.737Z,97291.69
2022-10-23T19:54:49.225Z,97295.59
2022-10-23T19:56:57.860Z,97305.53
2022-10-23T19:59:06.356Z,97307.34
2022-10-23T20:01:16.869Z,97306.81
2022-10-23T20:03:25.287Z,97291.75
2022-10-23T20:05:33.721Z,97281.81
2022-10-23T20:07:42.964Z,97294.88
2022-10-23T20:09:53.794Z,97301.50
2022-10-23T20:12:01.991Z,97305.47
2022-10-23T20:14:11.269Z,97305.69
2022-10-23T20:16:20.997Z,97305.25
2022-10-23T20:18:29.505Z,97299.56
2022-10-23T20:20:42.596Z,97310.72
2022-10-23T20:22:54.623Z,97310.94
2022-10-23T20:25:06.780Z,97307.41
2022-10-23T20:27:15.659Z,97302.88
2022-10-23T20:29:24.924Z,97302.84
2022-10-23T20:31:33.178Z,97307.78
2022-10-23T20:33:43.196Z,97314.09
2022-10-23T20:35:52.934Z,97304.13
2022-10-23T20:38:01.416Z,97308.94
2022-10-23T20:40:13.239Z,97307.09
2022-10-23T20:42:21.766Z,97307.66
2022-10-23T20:44:30.177Z,97317.41
2022-10-23T20:46:38.535Z,97319.28
2022-10-23T20:48:47.756Z,97309.38
2022-10-23T20:50:56.142Z,97318.63
2022-10-23T20:53:04.408Z,97318.00
2022-10-23T20:55:15.419Z,97338.06
2022-10-23T20:57:23.588Z,97321.19
2022-10-23T20:59:31.987Z,97320.00
2022-10-23T21:01:42.970Z,97324.13
2022-10-23T21:03:53.937Z,97331.22
2022-10-23T21:06:07.172Z,97327.31
2022-10-23T21:08:15.213Z,97340.28
2022-10-23T21:10:26.476Z,97334.59
2022-10-23T21:12:49.455Z,97344.53
2022-10-23T21:14:57.730Z,97325.41
2022-10-23T21:17:06.168Z,97333.91
2022-10-23T21:19:16.446Z,97341.47
2022-10-23T21:21:25.953Z,97344.53
2022-10-23T21:23:33.900Z,97347.38
2022-10-23T21:25:45.005Z,97355.25
2022-10-23T21:27:52.988Z,97365.38
2022-10-23T21:30:00.910Z,97359.91
2022-10-23T21:32:09.405Z,97371.72
2022-10-23T21:34:17.426Z,97358.47
2022-10-23T21:36:29.261Z,97354.59
2022-10-23T21:38:39.254Z,97358.13
2022-10-23T21:40:50.130Z,97374.66
2022-10-23T21:42:58.227Z,97363.41
2022-10-23T21:45:07.428Z,97355.16
2022-10-23T21:47:15.866Z,97353.75
2022-10-23T21:49:24.075Z,97355.63
2022-10-23T21:51:35.419Z,97365.03
2022-10-23T21:53:43.193Z,97358.00
2022-10-23T21:55:54.695Z,97353.41
2022-10-23T21:58:02.422Z,97342.25
2022-10-23T22:00:12.002Z,97348.31
2022-10-23T22:02:21.162Z,97353.72
2022-10-23T22:04:29.759Z,97343.09
2022-10-23T22:06:37.827Z,97336.41
2022-10-23T22:08:47.267Z,97329.28
2022-10-23T22:10:58.576Z,97328.72
2022-10-23T22:13:06.828Z,97325.72
2022-10-23T22:15:14.826Z,97328.78
2022-10-23T22:17:23.085Z,97311.66
2022-10-23T22:19:31.403Z,97319.75
2022-10-23T22:21:40.594Z,97315.72
2022-10-23T22:23:50.174Z,97326.56
2022-10-23T22:26:01.365Z,97321.06
2022-10-23T22:28:09.463Z,97313.50
2022-10-23T22:30:18.622Z,97316.25
2022-10-23T22:32:27.033Z,97308.31
2022-10-23T22:34:52.303Z,97311.16
2022-10-23T22:37:00.796Z,97314.84
2022-10-23T22:39:10.411Z,97308.31
2022-10-23T22:41:21.574Z,97312.19
2022-10-23T22:43:29.558Z,97306.91
2022-10-23T22:45:37.677Z,97309.09
2022-10-23T22:47:45.923Z,97307.69
2022-10-23T22:49:54.895Z,97310.22
2022-10-23T22:52:03.169Z,97301.03
2022-10-23T22:54:11.356Z,97300.72
2022-10-23T22:56:24.755Z,97309.41
2022-10-23T22:58:32.794Z,97317.53
2022-10-23T23:00:43.612Z,97317.19
2022-10-23T23:02:52.207Z,97312.50
2022-10-23T23:05:00.720Z,97316.19
2022-10-23T23:07:09.591Z,97309.56
2022-10-23T23:09:19.203Z,97313.47
2022-10-23T23:11:40.772Z,97315.22
2022-10-23T23:13:59.904Z,97325.06
2022-10-23T23:16:09.421Z,97327.91
2022-10-23T23:18:17.706Z,97326.41
2022-10-23T23:20:25.791Z,97330.53
2022-10-23T23:22:34.081Z,97330.69
2022-10-23T23:24:42.064Z,97331.63
2022-10-23T23:26:52.610Z,97335.44
2022-10-23T23:29:00.577Z,97338.53
2022-10-23T23:31:11.392Z,97338.59
2022-10-23T23:33:24.052Z,97338.00
2022-10-23T23:35:32.702Z,97335.16
2022-10-23T23:37:41.151Z,97342.59
2022-10-23T23:39:50.686Z,97338.78
2022-10-23T23:42:01.460Z,97330.72
2022-10-23T23:44:09.417Z,97325.78
2022-10-23T23:46:17.955Z,97319.72
2022-10-23T23:48:26.510Z,97312.50
2022-10-23T23:50:34.709Z,97309.94
2022-10-23T23:52:42.792Z,97305.66
2022-10-23T23:54:50.986Z,97312.41
2022-10-23T23:57:05.834Z,97305.06
2022-10-23T23:59:13.775Z,97307.69
